This is the latest recevied weather packets stored in our database for station/object EA2FBA-10. If no packets are shown the sender has not sent any weather packets the latest 1 day(s).
| Time | Temp. | Humidity | Pressure | Rain* | Wind** | Luminosity | Snow |
|---|---|---|---|---|---|---|---|
| 1778111370 | 9.44° C | 67% | 951.4 hPa | - | - | - | - |
| 1778105069 | 10.56° C | 67% | 952.1 hPa | - | - | - | - |
| 1778104169 | 10.56° C | 67% | 952.1 hPa | - | - | - | - |
| 1778103269 | 11.11° C | 67% | 952.1 hPa | - | - | - | - |
| 1778102369 | 11.11° C | 66% | 952.1 hPa | - | - | - | - |
| 1778094268 | 13.33° C | 61% | 951.4 hPa | - | - | - | - |
| 1778093368 | 13.89° C | 60% | 951.3 hPa | - | - | - | - |
| 1778085267 | 16.11° C | 55% | 951.2 hPa | - | - | - | - |
| 1778084367 | 16.11° C | 54% | 951.3 hPa | - | - | - | - |
| 1778078966 | 16.11° C | 56% | 951.8 hPa | - | - | - | - |
| 1778078066 | 15.56° C | 58% | 951.7 hPa | - | - | - | - |
| 1778077166 | 15° C | 58% | 951.9 hPa | - | - | - | - |
| 1778076266 | 15.56° C | 55% | 951.9 hPa | - | - | - | - |
| 1778075366 | 16.11° C | 53% | 951.7 hPa | - | - | - | - |
| 1778069965 | 15.56° C | 52% | 951.4 hPa | - | - | - | - |
| 1778069065 | 16.11° C | 51% | 951.5 hPa | - | - | - | - |
| 1778068165 | 16.11° C | 51% | 951.4 hPa | - | - | - | - |
| 1778063663 | 14.44° C | 54% | 951.5 hPa | - | - | - | - |
| 1778060425 | 13.89° C | 61% | 951.5 hPa | - | - | - | - |
| 1778056824 | 13.89° C | 58% | 951.1 hPa | - | - | - | - |
| 1778055924 | 13.89° C | 57% | 951.2 hPa | - | - | - | - |
| 1778055024 | 13.89° C | 58% | 951.2 hPa | - | - | - | - |
| 1778054124 | 12.78° C | 60% | 951.3 hPa | - | - | - | - |
| 1778053224 | 12.78° C | 61% | 951.1 hPa | - | - | - | - |
| 1778052324 | 12.78° C | 62% | 951.2 hPa | - | - | - | - |
* Rain since midnight (hover to see other rain measurements)
** Current wind speed in m/s (hover to see current wind gust speed)